sensor_id;sensor_type;location;lat;lon;timestamp;temperature;humidity
64493;DHT22;50868;24.150;-110.320;2023-09-08T00:00:25;46.50;93.30
64493;DHT22;50868;24.150;-110.320;2023-09-08T00:02:52;46.50;93.40
64493;DHT22;50868;24.150;-110.320;2023-09-08T00:05:19;46.80;92.70
64493;DHT22;50868;24.150;-110.320;2023-09-08T00:07:46;46.90;93.30
64493;DHT22;50868;24.150;-110.320;2023-09-08T00:10:14;47.10;92.60
64493;DHT22;50868;24.150;-110.320;2023-09-08T00:12:42;46.60;91.60
64493;DHT22;50868;24.150;-110.320;2023-09-08T00:15:09;44.60;91.80
64493;DHT22;50868;24.150;-110.320;2023-09-08T00:17:37;43.80;94.10
64493;DHT22;50868;24.150;-110.320;2023-09-08T00:20:05;43.00;94.20
64493;DHT22;50868;24.150;-110.320;2023-09-08T00:22:36;42.20;94.00
64493;DHT22;50868;24.150;-110.320;2023-09-08T00:25:04;40.80;96.50
64493;DHT22;50868;24.150;-110.320;2023-09-08T00:27:32;39.90;96.90
64493;DHT22;50868;24.150;-110.320;2023-09-08T00:29:59;38.80;98.20
64493;DHT22;50868;24.150;-110.320;2023-09-08T00:32:28;38.20;98.90
64493;DHT22;50868;24.150;-110.320;2023-09-08T00:34:55;37.50;99.90
64493;DHT22;50868;24.150;-110.320;2023-09-08T00:37:22;37.10;99.90
64493;DHT22;50868;24.150;-110.320;2023-09-08T00:39:50;36.50;99.90
64493;DHT22;50868;24.150;-110.320;2023-09-08T00:42:17;36.20;99.90
64493;DHT22;50868;24.150;-110.320;2023-09-08T00:44:45;35.90;99.90
64493;DHT22;50868;24.150;-110.320;2023-09-08T00:47:12;35.60;99.90
64493;DHT22;50868;24.150;-110.320;2023-09-08T00:49:40;35.00;99.90
64493;DHT22;50868;24.150;-110.320;2023-09-08T00:52:07;34.70;99.90
64493;DHT22;50868;24.150;-110.320;2023-09-08T00:54:35;34.40;99.90
64493;DHT22;50868;24.150;-110.320;2023-09-08T00:57:03;34.30;99.90
64493;DHT22;50868;24.150;-110.320;2023-09-08T00:59:32;34.30;99.90
64493;DHT22;50868;24.150;-110.320;2023-09-08T01:01:59;34.20;99.90
64493;DHT22;50868;24.150;-110.320;2023-09-08T01:04:26;33.90;99.90
64493;DHT22;50868;24.150;-110.320;2023-09-08T01:06:54;33.80;99.90
64493;DHT22;50868;24.150;-110.320;2023-09-08T01:09:23;33.70;99.90
64493;DHT22;50868;24.150;-110.320;2023-09-08T01:11:51;33.40;99.90
64493;DHT22;50868;24.150;-110.320;2023-09-08T01:14:19;33.20;99.90
64493;DHT22;50868;24.150;-110.320;2023-09-08T01:16:46;33.00;99.90
64493;DHT22;50868;24.150;-110.320;2023-09-08T01:19:15;32.90;99.90
64493;DHT22;50868;24.150;-110.320;2023-09-08T01:27:35;32.40;99.90
64493;DHT22;50868;24.150;-110.320;2023-09-08T01:30:05;32.30;99.90
64493;DHT22;50868;24.150;-110.320;2023-09-08T01:32:34;32.20;99.90
64493;DHT22;50868;24.150;-110.320;2023-09-08T01:35:02;31.70;99.90
64493;DHT22;50868;24.150;-110.320;2023-09-08T01:37:30;31.60;99.90
64493;DHT22;50868;24.150;-110.320;2023-09-08T01:39:57;31.50;99.90
64493;DHT22;50868;24.150;-110.320;2023-09-08T01:42:24;31.50;99.90
64493;DHT22;50868;24.150;-110.320;2023-09-08T01:44:51;31.40;99.90
64493;DHT22;50868;24.150;-110.320;2023-09-08T01:47:18;31.40;99.90
64493;DHT22;50868;24.150;-110.320;2023-09-08T01:49:45;31.30;99.90
64493;DHT22;50868;24.150;-110.320;2023-09-08T01:52:13;31.30;99.90
64493;DHT22;50868;24.150;-110.320;2023-09-08T01:54:40;31.20;99.90
64493;DHT22;50868;24.150;-110.320;2023-09-08T01:57:07;31.10;99.90
64493;DHT22;50868;24.150;-110.320;2023-09-08T01:59:34;31.10;99.90
64493;DHT22;50868;24.150;-110.320;2023-09-08T02:02:04;31.10;99.90
64493;DHT22;50868;24.150;-110.320;2023-09-08T02:04:31;31.10;99.90
64493;DHT22;50868;24.150;-110.320;2023-09-08T02:06:58;31.10;99.90
64493;DHT22;50868;24.150;-110.320;2023-09-08T02:09:32;31.00;99.90
64493;DHT22;50868;24.150;-110.320;2023-09-08T02:12:00;31.00;99.90
64493;DHT22;50868;24.150;-110.320;2023-09-08T02:14:27;30.90;99.90
64493;DHT22;50868;24.150;-110.320;2023-09-08T02:16:55;30.90;99.90
64493;DHT22;50868;24.150;-110.320;2023-09-08T02:19:23;30.80;99.90
64493;DHT22;50868;24.150;-110.320;2023-09-08T02:21:50;30.90;99.90
64493;DHT22;50868;24.150;-110.320;2023-09-08T02:24:17;30.80;99.90
64493;DHT22;50868;24.150;-110.320;2023-09-08T02:26:44;30.80;99.90
64493;DHT22;50868;24.150;-110.320;2023-09-08T02:29:12;30.80;99.90
64493;DHT22;50868;24.150;-110.320;2023-09-08T02:31:39;30.70;99.90
64493;DHT22;50868;24.150;-110.320;2023-09-08T02:34:07;30.70;99.90
64493;DHT22;50868;24.150;-110.320;2023-09-08T02:36:34;30.70;99.90
64493;DHT22;50868;24.150;-110.320;2023-09-08T02:39:01;30.70;99.90
64493;DHT22;50868;24.150;-110.320;2023-09-08T02:41:28;30.70;99.90
64493;DHT22;50868;24.150;-110.320;2023-09-08T02:43:55;30.80;99.90
64493;DHT22;50868;24.150;-110.320;2023-09-08T02:46:22;30.80;99.90
64493;DHT22;50868;24.150;-110.320;2023-09-08T02:48:49;30.80;99.90
64493;DHT22;50868;24.150;-110.320;2023-09-08T02:51:16;30.80;99.90
64493;DHT22;50868;24.150;-110.320;2023-09-08T02:53:43;30.80;99.90
64493;DHT22;50868;24.150;-110.320;2023-09-08T02:56:11;30.70;99.90
64493;DHT22;50868;24.150;-110.320;2023-09-08T02:58:38;30.60;99.90
64493;DHT22;50868;24.150;-110.320;2023-09-08T03:01:15;30.40;99.90
64493;DHT22;50868;24.150;-110.320;2023-09-08T03:03:46;30.40;99.90
64493;DHT22;50868;24.150;-110.320;2023-09-08T03:06:15;30.20;99.90
64493;DHT22;50868;24.150;-110.320;2023-09-08T03:08:42;30.10;99.90
64493;DHT22;50868;24.150;-110.320;2023-09-08T03:11:09;30.10;99.90
64493;DHT22;50868;24.150;-110.320;2023-09-08T03:13:36;30.00;99.90
64493;DHT22;50868;24.150;-110.320;2023-09-08T03:16:05;30.10;99.90
64493;DHT22;50868;24.150;-110.320;2023-09-08T03:18:33;30.10;99.90
64493;DHT22;50868;24.150;-110.320;2023-09-08T03:21:03;30.10;99.90
64493;DHT22;50868;24.150;-110.320;2023-09-08T03:23:37;30.10;99.90
64493;DHT22;50868;24.150;-110.320;2023-09-08T03:26:04;30.10;99.90
64493;DHT22;50868;24.150;-110.320;2023-09-08T03:28:33;30.10;99.90
64493;DHT22;50868;24.150;-110.320;2023-09-08T03:31:04;30.10;99.90
64493;DHT22;50868;24.150;-110.320;2023-09-08T03:33:31;30.00;99.90
64493;DHT22;50868;24.150;-110.320;2023-09-08T03:35:58;30.00;99.90
64493;DHT22;50868;24.150;-110.320;2023-09-08T03:38:25;30.00;99.90
64493;DHT22;50868;24.150;-110.320;2023-09-08T03:40:53;30.10;99.90
64493;DHT22;50868;24.150;-110.320;2023-09-08T03:43:20;30.10;99.90
64493;DHT22;50868;24.150;-110.320;2023-09-08T03:45:47;30.20;99.90
64493;DHT22;50868;24.150;-110.320;2023-09-08T03:48:14;30.20;99.90
64493;DHT22;50868;24.150;-110.320;2023-09-08T03:50:41;30.20;99.90
64493;DHT22;50868;24.150;-110.320;2023-09-08T03:53:12;30.20;99.90
64493;DHT22;50868;24.150;-110.320;2023-09-08T03:55:39;30.20;99.90
64493;DHT22;50868;24.150;-110.320;2023-09-08T03:58:06;30.20;99.90
64493;DHT22;50868;24.150;-110.320;2023-09-08T04:00:34;30.30;99.90
64493;DHT22;50868;24.150;-110.320;2023-09-08T04:03:01;30.20;99.90
64493;DHT22;50868;24.150;-110.320;2023-09-08T04:05:29;30.30;99.90
64493;DHT22;50868;24.150;-110.320;2023-09-08T04:07:56;30.30;99.90
64493;DHT22;50868;24.150;-110.320;2023-09-08T04:10:23;30.40;99.90
64493;DHT22;50868;24.150;-110.320;2023-09-08T04:12:50;30.40;99.90
64493;DHT22;50868;24.150;-110.320;2023-09-08T04:15:17;30.30;99.90
64493;DHT22;50868;24.150;-110.320;2023-09-08T04:17:45;30.30;99.90
64493;DHT22;50868;24.150;-110.320;2023-09-08T04:20:12;30.30;99.90
64493;DHT22;50868;24.150;-110.320;2023-09-08T04:22:41;30.20;99.90
64493;DHT22;50868;24.150;-110.320;2023-09-08T04:25:09;30.10;99.90
64493;DHT22;50868;24.150;-110.320;2023-09-08T04:27:36;30.10;99.90
64493;DHT22;50868;24.150;-110.320;2023-09-08T04:30:05;30.20;99.90
64493;DHT22;50868;24.150;-110.320;2023-09-08T04:32:33;30.10;99.90
64493;DHT22;50868;24.150;-110.320;2023-09-08T04:35:00;30.20;99.90
64493;DHT22;50868;24.150;-110.320;2023-09-08T04:37:27;30.30;99.90
64493;DHT22;50868;24.150;-110.320;2023-09-08T04:39:54;30.20;99.90
64493;DHT22;50868;24.150;-110.320;2023-09-08T04:42:21;30.20;99.90
64493;DHT22;50868;24.150;-110.320;2023-09-08T04:44:49;30.20;99.90
64493;DHT22;50868;24.150;-110.320;2023-09-08T04:47:16;30.20;99.90
64493;DHT22;50868;24.150;-110.320;2023-09-08T04:49:44;30.20;99.90
64493;DHT22;50868;24.150;-110.320;2023-09-08T04:52:11;30.20;99.90
64493;DHT22;50868;24.150;-110.320;2023-09-08T04:54:38;30.20;99.90
64493;DHT22;50868;24.150;-110.320;2023-09-08T04:57:06;30.30;99.90
64493;DHT22;50868;24.150;-110.320;2023-09-08T04:59:33;30.20;99.90
64493;DHT22;50868;24.150;-110.320;2023-09-08T05:02:03;30.20;99.90
64493;DHT22;50868;24.150;-110.320;2023-09-08T05:04:30;30.30;99.90
64493;DHT22;50868;24.150;-110.320;2023-09-08T05:06:57;30.30;99.90
64493;DHT22;50868;24.150;-110.320;2023-09-08T05:09:24;30.30;99.90
64493;DHT22;50868;24.150;-110.320;2023-09-08T05:11:51;30.30;99.90
64493;DHT22;50868;24.150;-110.320;2023-09-08T05:14:18;30.30;99.90
64493;DHT22;50868;24.150;-110.320;2023-09-08T05:16:46;30.20;99.90
64493;DHT22;50868;24.150;-110.320;2023-09-08T05:19:16;30.20;99.90
64493;DHT22;50868;24.150;-110.320;2023-09-08T05:21:43;30.20;99.90
64493;DHT22;50868;24.150;-110.320;2023-09-08T05:24:10;30.20;99.90
64493;DHT22;50868;24.150;-110.320;2023-09-08T05:26:38;30.20;99.90
64493;DHT22;50868;24.150;-110.320;2023-09-08T05:29:05;30.20;99.90
64493;DHT22;50868;24.150;-110.320;2023-09-08T05:31:32;30.10;99.90
64493;DHT22;50868;24.150;-110.320;2023-09-08T05:33:59;30.10;99.90
64493;DHT22;50868;24.150;-110.320;2023-09-08T05:36:26;30.10;99.90
64493;DHT22;50868;24.150;-110.320;2023-09-08T05:38:56;30.10;99.90
64493;DHT22;50868;24.150;-110.320;2023-09-08T05:41:23;30.10;99.90
64493;DHT22;50868;24.150;-110.320;2023-09-08T05:43:50;30.10;99.90
64493;DHT22;50868;24.150;-110.320;2023-09-08T05:46:17;30.10;99.90
64493;DHT22;50868;24.150;-110.320;2023-09-08T05:48:44;30.10;99.90
64493;DHT22;50868;24.150;-110.320;2023-09-08T05:51:14;30.10;99.90
64493;DHT22;50868;24.150;-110.320;2023-09-08T05:53:41;30.10;99.90
64493;DHT22;50868;24.150;-110.320;2023-09-08T05:56:09;30.10;99.90
64493;DHT22;50868;24.150;-110.320;2023-09-08T05:58:36;30.10;99.90
64493;DHT22;50868;24.150;-110.320;2023-09-08T06:01:04;30.10;99.90
64493;DHT22;50868;24.150;-110.320;2023-09-08T06:03:31;30.10;99.90
64493;DHT22;50868;24.150;-110.320;2023-09-08T06:05:58;30.10;99.90
64493;DHT22;50868;24.150;-110.320;2023-09-08T06:08:25;30.00;99.90
64493;DHT22;50868;24.150;-110.320;2023-09-08T06:10:52;30.00;99.90
64493;DHT22;50868;24.150;-110.320;2023-09-08T06:13:19;30.00;99.90
64493;DHT22;50868;24.150;-110.320;2023-09-08T06:15:46;30.00;99.90
64493;DHT22;50868;24.150;-110.320;2023-09-08T06:18:13;30.00;99.90
64493;DHT22;50868;24.150;-110.320;2023-09-08T06:20:47;29.90;99.90
64493;DHT22;50868;24.150;-110.320;2023-09-08T06:23:14;29.90;99.90
64493;DHT22;50868;24.150;-110.320;2023-09-08T06:25:42;29.90;99.90
64493;DHT22;50868;24.150;-110.320;2023-09-08T06:28:09;29.90;99.90
64493;DHT22;50868;24.150;-110.320;2023-09-08T06:30:36;29.90;99.90
64493;DHT22;50868;24.150;-110.320;2023-09-08T06:33:03;29.90;99.90
64493;DHT22;50868;24.150;-110.320;2023-09-08T06:35:30;29.90;99.90
64493;DHT22;50868;24.150;-110.320;2023-09-08T06:37:58;29.90;99.90
64493;DHT22;50868;24.150;-110.320;2023-09-08T06:40:25;29.90;99.90
64493;DHT22;50868;24.150;-110.320;2023-09-08T06:42:52;29.90;99.90
64493;DHT22;50868;24.150;-110.320;2023-09-08T06:45:19;29.80;99.90
64493;DHT22;50868;24.150;-110.320;2023-09-08T06:47:47;29.90;99.90
64493;DHT22;50868;24.150;-110.320;2023-09-08T06:50:16;29.90;99.90
64493;DHT22;50868;24.150;-110.320;2023-09-08T06:52:43;29.90;99.90
64493;DHT22;50868;24.150;-110.320;2023-09-08T06:55:10;29.90;99.90
64493;DHT22;50868;24.150;-110.320;2023-09-08T06:57:39;29.90;99.90
64493;DHT22;50868;24.150;-110.320;2023-09-08T07:00:07;29.90;99.90
64493;DHT22;50868;24.150;-110.320;2023-09-08T07:02:34;29.90;99.90
64493;DHT22;50868;24.150;-110.320;2023-09-08T07:05:01;29.90;99.90
64493;DHT22;50868;24.150;-110.320;2023-09-08T07:07:33;29.90;99.90
64493;DHT22;50868;24.150;-110.320;2023-09-08T07:10:00;29.90;99.90
64493;DHT22;50868;24.150;-110.320;2023-09-08T07:12:27;29.90;99.90
64493;DHT22;50868;24.150;-110.320;2023-09-08T07:14:54;29.90;99.90
64493;DHT22;50868;24.150;-110.320;2023-09-08T07:17:22;29.90;99.90
64493;DHT22;50868;24.150;-110.320;2023-09-08T07:19:52;29.90;99.90
64493;DHT22;50868;24.150;-110.320;2023-09-08T07:22:19;29.90;99.90
64493;DHT22;50868;24.150;-110.320;2023-09-08T07:24:46;29.90;99.90
64493;DHT22;50868;24.150;-110.320;2023-09-08T07:27:13;29.90;99.90
64493;DHT22;50868;24.150;-110.320;2023-09-08T07:29:41;29.90;99.90
64493;DHT22;50868;24.150;-110.320;2023-09-08T07:32:08;29.90;99.90
64493;DHT22;50868;24.150;-110.320;2023-09-08T07:34:36;29.80;99.90
64493;DHT22;50868;24.150;-110.320;2023-09-08T07:37:03;29.80;99.90
64493;DHT22;50868;24.150;-110.320;2023-09-08T07:39:30;29.90;99.90
64493;DHT22;50868;24.150;-110.320;2023-09-08T07:41:59;29.90;99.90
64493;DHT22;50868;24.150;-110.320;2023-09-08T07:44:26;29.80;99.90
64493;DHT22;50868;24.150;-110.320;2023-09-08T07:46:53;29.80;99.90
64493;DHT22;50868;24.150;-110.320;2023-09-08T07:49:23;29.80;99.90
64493;DHT22;50868;24.150;-110.320;2023-09-08T07:51:50;29.80;99.90
64493;DHT22;50868;24.150;-110.320;2023-09-08T07:54:17;29.90;99.90
64493;DHT22;50868;24.150;-110.320;2023-09-08T07:56:44;29.90;99.90
64493;DHT22;50868;24.150;-110.320;2023-09-08T07:59:11;29.80;99.90
64493;DHT22;50868;24.150;-110.320;2023-09-08T08:01:38;29.90;99.90
64493;DHT22;50868;24.150;-110.320;2023-09-08T08:04:06;29.90;99.90
64493;DHT22;50868;24.150;-110.320;2023-09-08T08:06:33;29.90;99.90
64493;DHT22;50868;24.150;-110.320;2023-09-08T08:09:00;29.90;99.90
64493;DHT22;50868;24.150;-110.320;2023-09-08T08:11:27;29.80;99.90
64493;DHT22;50868;24.150;-110.320;2023-09-08T08:13:54;29.80;99.90
64493;DHT22;50868;24.150;-110.320;2023-09-08T08:16:23;29.70;99.90
64493;DHT22;50868;24.150;-110.320;2023-09-08T08:18:50;29.90;99.90
64493;DHT22;50868;24.150;-110.320;2023-09-08T08:21:18;29.90;99.90
64493;DHT22;50868;24.150;-110.320;2023-09-08T08:23:45;29.90;99.90
64493;DHT22;50868;24.150;-110.320;2023-09-08T08:26:12;29.80;99.90
64493;DHT22;50868;24.150;-110.320;2023-09-08T08:28:39;29.80;99.90
64493;DHT22;50868;24.150;-110.320;2023-09-08T08:31:06;29.90;99.90
64493;DHT22;50868;24.150;-110.320;2023-09-08T08:33:33;29.90;99.90
64493;DHT22;50868;24.150;-110.320;2023-09-08T08:36:00;29.80;99.90
64493;DHT22;50868;24.150;-110.320;2023-09-08T08:38:27;29.70;99.90
64493;DHT22;50868;24.150;-110.320;2023-09-08T08:40:55;29.80;99.90
64493;DHT22;50868;24.150;-110.320;2023-09-08T08:43:22;29.80;99.90
64493;DHT22;50868;24.150;-110.320;2023-09-08T08:45:50;29.90;99.90
64493;DHT22;50868;24.150;-110.320;2023-09-08T08:48:20;29.80;99.90
64493;DHT22;50868;24.150;-110.320;2023-09-08T08:50:48;29.90;99.90
64493;DHT22;50868;24.150;-110.320;2023-09-08T08:53:17;29.70;99.90
64493;DHT22;50868;24.150;-110.320;2023-09-08T08:55:46;29.70;99.90
64493;DHT22;50868;24.150;-110.320;2023-09-08T08:58:13;29.70;99.90
64493;DHT22;50868;24.150;-110.320;2023-09-08T09:00:41;29.70;99.90
64493;DHT22;50868;24.150;-110.320;2023-09-08T09:03:09;29.70;99.90
64493;DHT22;50868;24.150;-110.320;2023-09-08T09:05:37;29.80;99.90
64493;DHT22;50868;24.150;-110.320;2023-09-08T09:08:05;29.60;99.90
64493;DHT22;50868;24.150;-110.320;2023-09-08T09:10:33;29.60;99.90
64493;DHT22;50868;24.150;-110.320;2023-09-08T09:13:00;29.60;99.90
64493;DHT22;50868;24.150;-110.320;2023-09-08T09:15:31;29.60;99.90
64493;DHT22;50868;24.150;-110.320;2023-09-08T09:18:06;29.50;99.90
64493;DHT22;50868;24.150;-110.320;2023-09-08T09:20:33;29.50;99.90
64493;DHT22;50868;24.150;-110.320;2023-09-08T09:23:01;29.50;99.90
64493;DHT22;50868;24.150;-110.320;2023-09-08T09:25:30;29.40;99.90
64493;DHT22;50868;24.150;-110.320;2023-09-08T09:28:00;29.40;99.90
64493;DHT22;50868;24.150;-110.320;2023-09-08T09:30:40;29.40;99.90
64493;DHT22;50868;24.150;-110.320;2023-09-08T09:33:13;29.60;99.90
64493;DHT22;50868;24.150;-110.320;2023-09-08T09:35:44;29.70;99.90
64493;DHT22;50868;24.150;-110.320;2023-09-08T09:38:12;29.60;99.90
64493;DHT22;50868;24.150;-110.320;2023-09-08T09:40:40;29.50;99.90
64493;DHT22;50868;24.150;-110.320;2023-09-08T09:43:09;29.40;99.90
64493;DHT22;50868;24.150;-110.320;2023-09-08T09:45:38;29.50;99.90
64493;DHT22;50868;24.150;-110.320;2023-09-08T09:48:08;29.50;99.90
64493;DHT22;50868;24.150;-110.320;2023-09-08T09:50:37;29.60;99.90
64493;DHT22;50868;24.150;-110.320;2023-09-08T09:53:14;29.50;99.90
64493;DHT22;50868;24.150;-110.320;2023-09-08T09:55:43;29.50;99.90
64493;DHT22;50868;24.150;-110.320;2023-09-08T09:58:11;29.40;99.90
64493;DHT22;50868;24.150;-110.320;2023-09-08T10:00:40;29.50;99.90
64493;DHT22;50868;24.150;-110.320;2023-09-08T10:03:08;29.50;99.90
64493;DHT22;50868;24.150;-110.320;2023-09-08T10:05:35;29.50;99.90
64493;DHT22;50868;24.150;-110.320;2023-09-08T10:08:03;29.50;99.90
64493;DHT22;50868;24.150;-110.320;2023-09-08T10:10:32;29.40;99.90
64493;DHT22;50868;24.150;-110.320;2023-09-08T10:13:06;29.40;99.90
64493;DHT22;50868;24.150;-110.320;2023-09-08T10:15:34;29.50;99.90
64493;DHT22;50868;24.150;-110.320;2023-09-08T10:18:05;29.50;99.90
64493;DHT22;50868;24.150;-110.320;2023-09-08T10:20:34;29.50;99.90
64493;DHT22;50868;24.150;-110.320;2023-09-08T10:23:09;29.50;99.90
64493;DHT22;50868;24.150;-110.320;2023-09-08T10:25:42;29.50;99.90
64493;DHT22;50868;24.150;-110.320;2023-09-08T10:28:12;29.50;99.90
64493;DHT22;50868;24.150;-110.320;2023-09-08T10:30:39;29.30;99.90
64493;DHT22;50868;24.150;-110.320;2023-09-08T10:33:07;29.40;99.90
64493;DHT22;50868;24.150;-110.320;2023-09-08T10:35:34;29.40;99.90
64493;DHT22;50868;24.150;-110.320;2023-09-08T10:41:25;29.40;99.90
64493;DHT22;50868;24.150;-110.320;2023-09-08T10:43:44;29.40;99.90
64493;DHT22;50868;24.150;-110.320;2023-09-08T10:46:22;29.30;99.90
64493;DHT22;50868;24.150;-110.320;2023-09-08T10:48:49;29.30;99.90
64493;DHT22;50868;24.150;-110.320;2023-09-08T10:51:19;29.30;99.90
64493;DHT22;50868;24.150;-110.320;2023-09-08T10:53:49;29.30;99.90
64493;DHT22;50868;24.150;-110.320;2023-09-08T10:56:17;29.30;99.90
64493;DHT22;50868;24.150;-110.320;2023-09-08T10:58:54;29.40;99.90
64493;DHT22;50868;24.150;-110.320;2023-09-08T11:01:21;29.40;99.90
64493;DHT22;50868;24.150;-110.320;2023-09-08T11:03:54;29.30;99.90
64493;DHT22;50868;24.150;-110.320;2023-09-08T11:06:21;29.30;99.90
64493;DHT22;50868;24.150;-110.320;2023-09-08T11:08:49;29.30;99.90
64493;DHT22;50868;24.150;-110.320;2023-09-08T11:11:19;29.20;99.90
64493;DHT22;50868;24.150;-110.320;2023-09-08T11:13:46;29.20;99.90
64493;DHT22;50868;24.150;-110.320;2023-09-08T11:16:14;29.20;99.90
64493;DHT22;50868;24.150;-110.320;2023-09-08T11:18:43;29.20;99.90
64493;DHT22;50868;24.150;-110.320;2023-09-08T11:21:11;29.20;99.90
64493;DHT22;50868;24.150;-110.320;2023-09-08T11:23:38;29.20;99.90
64493;DHT22;50868;24.150;-110.320;2023-09-08T11:26:06;29.20;99.90
64493;DHT22;50868;24.150;-110.320;2023-09-08T11:28:35;29.20;99.90
64493;DHT22;50868;24.150;-110.320;2023-09-08T11:31:03;29.20;99.90
64493;DHT22;50868;24.150;-110.320;2023-09-08T11:33:34;29.20;99.90
64493;DHT22;50868;24.150;-110.320;2023-09-08T11:36:14;29.30;99.90
64493;DHT22;50868;24.150;-110.320;2023-09-08T11:38:43;29.20;99.90
64493;DHT22;50868;24.150;-110.320;2023-09-08T11:41:13;29.20;99.90
64493;DHT22;50868;24.150;-110.320;2023-09-08T11:43:40;29.20;99.90
64493;DHT22;50868;24.150;-110.320;2023-09-08T11:46:08;29.20;99.90
64493;DHT22;50868;24.150;-110.320;2023-09-08T11:48:37;29.20;99.90
64493;DHT22;50868;24.150;-110.320;2023-09-08T11:51:07;29.20;99.90
64493;DHT22;50868;24.150;-110.320;2023-09-08T11:53:36;29.20;99.90
64493;DHT22;50868;24.150;-110.320;2023-09-08T11:56:04;29.20;99.90
64493;DHT22;50868;24.150;-110.320;2023-09-08T11:58:31;29.20;99.90
64493;DHT22;50868;24.150;-110.320;2023-09-08T12:00:59;29.10;99.90
64493;DHT22;50868;24.150;-110.320;2023-09-08T12:03:27;29.20;99.90
64493;DHT22;50868;24.150;-110.320;2023-09-08T12:05:54;29.30;99.90
64493;DHT22;50868;24.150;-110.320;2023-09-08T12:08:24;29.30;99.90
64493;DHT22;50868;24.150;-110.320;2023-09-08T12:10:54;29.20;99.90
64493;DHT22;50868;24.150;-110.320;2023-09-08T12:13:22;29.30;99.90
64493;DHT22;50868;24.150;-110.320;2023-09-08T12:15:50;29.10;99.90
64493;DHT22;50868;24.150;-110.320;2023-09-08T12:18:17;29.20;99.90
64493;DHT22;50868;24.150;-110.320;2023-09-08T12:20:45;29.10;99.90
64493;DHT22;50868;24.150;-110.320;2023-09-08T12:23:20;29.10;99.90
64493;DHT22;50868;24.150;-110.320;2023-09-08T12:25:51;29.00;99.90
64493;DHT22;50868;24.150;-110.320;2023-09-08T12:28:20;29.00;99.90
64493;DHT22;50868;24.150;-110.320;2023-09-08T12:30:51;29.00;99.90
64493;DHT22;50868;24.150;-110.320;2023-09-08T12:33:20;29.00;99.90
64493;DHT22;50868;24.150;-110.320;2023-09-08T12:35:47;29.00;99.90
64493;DHT22;50868;24.150;-110.320;2023-09-08T12:38:15;29.00;99.90
64493;DHT22;50868;24.150;-110.320;2023-09-08T12:40:42;29.10;99.90
64493;DHT22;50868;24.150;-110.320;2023-09-08T12:43:09;29.10;99.90
64493;DHT22;50868;24.150;-110.320;2023-09-08T12:45:36;29.10;99.90
64493;DHT22;50868;24.150;-110.320;2023-09-08T12:48:03;29.00;99.90
64493;DHT22;50868;24.150;-110.320;2023-09-08T12:50:33;29.00;99.90
64493;DHT22;50868;24.150;-110.320;2023-09-08T12:53:00;29.00;99.90
64493;DHT22;50868;24.150;-110.320;2023-09-08T12:55:27;29.00;99.90
64493;DHT22;50868;24.150;-110.320;2023-09-08T12:57:54;29.00;99.90
64493;DHT22;50868;24.150;-110.320;2023-09-08T13:00:22;29.00;99.90
64493;DHT22;50868;24.150;-110.320;2023-09-08T13:02:50;29.00;99.90
64493;DHT22;50868;24.150;-110.320;2023-09-08T13:05:17;29.00;99.90
64493;DHT22;50868;24.150;-110.320;2023-09-08T13:07:44;28.90;99.90
64493;DHT22;50868;24.150;-110.320;2023-09-08T13:10:11;28.90;99.90
64493;DHT22;50868;24.150;-110.320;2023-09-08T13:12:38;28.90;99.90
64493;DHT22;50868;24.150;-110.320;2023-09-08T13:15:06;28.90;99.90
64493;DHT22;50868;24.150;-110.320;2023-09-08T13:17:33;28.90;99.90
64493;DHT22;50868;24.150;-110.320;2023-09-08T13:20:01;29.00;99.90
64493;DHT22;50868;24.150;-110.320;2023-09-08T13:22:29;29.00;99.90
64493;DHT22;50868;24.150;-110.320;2023-09-08T13:24:56;29.00;99.90
64493;DHT22;50868;24.150;-110.320;2023-09-08T13:27:23;29.00;99.90
64493;DHT22;50868;24.150;-110.320;2023-09-08T13:29:53;29.00;99.90
64493;DHT22;50868;24.150;-110.320;2023-09-08T13:32:20;29.10;99.90
64493;DHT22;50868;24.150;-110.320;2023-09-08T13:34:49;29.10;99.90
64493;DHT22;50868;24.150;-110.320;2023-09-08T13:37:16;29.10;99.90
64493;DHT22;50868;24.150;-110.320;2023-09-08T13:39:43;29.20;99.90
64493;DHT22;50868;24.150;-110.320;2023-09-08T13:42:10;29.20;99.90
64493;DHT22;50868;24.150;-110.320;2023-09-08T13:44:38;29.30;99.90
64493;DHT22;50868;24.150;-110.320;2023-09-08T13:47:05;29.30;99.90
64493;DHT22;50868;24.150;-110.320;2023-09-08T13:49:32;29.30;99.90
64493;DHT22;50868;24.150;-110.320;2023-09-08T13:51:59;29.30;99.90
64493;DHT22;50868;24.150;-110.320;2023-09-08T13:54:27;29.30;99.90
64493;DHT22;50868;24.150;-110.320;2023-09-08T13:57:02;29.40;99.90
64493;DHT22;50868;24.150;-110.320;2023-09-08T13:59:29;29.50;99.90
64493;DHT22;50868;24.150;-110.320;2023-09-08T14:01:57;29.60;99.90
64493;DHT22;50868;24.150;-110.320;2023-09-08T14:04:25;29.60;99.90
64493;DHT22;50868;24.150;-110.320;2023-09-08T14:06:52;29.80;99.90
64493;DHT22;50868;24.150;-110.320;2023-09-08T14:09:19;29.70;99.90
64493;DHT22;50868;24.150;-110.320;2023-09-08T14:11:47;29.70;99.90
64493;DHT22;50868;24.150;-110.320;2023-09-08T14:14:14;29.70;99.90
64493;DHT22;50868;24.150;-110.320;2023-09-08T14:16:41;29.80;99.90
64493;DHT22;50868;24.150;-110.320;2023-09-08T14:19:08;29.90;99.90
64493;DHT22;50868;24.150;-110.320;2023-09-08T14:21:38;29.90;99.90
64493;DHT22;50868;24.150;-110.320;2023-09-08T14:24:06;29.90;99.90
64493;DHT22;50868;24.150;-110.320;2023-09-08T14:26:33;29.90;99.90
64493;DHT22;50868;24.150;-110.320;2023-09-08T14:29:02;29.90;99.90
64493;DHT22;50868;24.150;-110.320;2023-09-08T14:31:29;30.00;99.90
64493;DHT22;50868;24.150;-110.320;2023-09-08T14:33:58;30.00;99.90
64493;DHT22;50868;24.150;-110.320;2023-09-08T14:36:25;30.00;99.90
64493;DHT22;50868;24.150;-110.320;2023-09-08T14:38:52;30.00;99.90
64493;DHT22;50868;24.150;-110.320;2023-09-08T14:41:23;30.10;99.90
64493;DHT22;50868;24.150;-110.320;2023-09-08T14:43:51;30.20;99.90
64493;DHT22;50868;24.150;-110.320;2023-09-08T14:46:18;30.20;99.90
64493;DHT22;50868;24.150;-110.320;2023-09-08T14:48:45;30.40;99.90
64493;DHT22;50868;24.150;-110.320;2023-09-08T14:51:13;30.40;99.90
64493;DHT22;50868;24.150;-110.320;2023-09-08T14:53:40;30.60;99.90
64493;DHT22;50868;24.150;-110.320;2023-09-08T14:56:07;30.80;99.90
64493;DHT22;50868;24.150;-110.320;2023-09-08T14:58:34;30.70;99.90
64493;DHT22;50868;24.150;-110.320;2023-09-08T15:01:03;30.70;99.90